sensor_id;sensor_type;location;lat;lon;timestamp;P1;durP1;ratioP1;P2;durP2;ratioP2
42690;SDS011;28306;55.744;37.578;2022-08-21T00:01:10;12.82;;;9.48;;
42690;SDS011;28306;55.744;37.578;2022-08-21T00:03:38;16.95;;;9.95;;
42690;SDS011;28306;55.744;37.578;2022-08-21T00:06:05;14.55;;;9.63;;
42690;SDS011;28306;55.744;37.578;2022-08-21T00:08:31;20.27;;;10.65;;
42690;SDS011;28306;55.744;37.578;2022-08-21T00:10:57;16.13;;;10.82;;
42690;SDS011;28306;55.744;37.578;2022-08-21T00:13:22;14.63;;;9.93;;
42690;SDS011;28306;55.744;37.578;2022-08-21T00:15:49;17.08;;;10.80;;
42690;SDS011;28306;55.744;37.578;2022-08-21T00:18:15;16.52;;;10.77;;
42690;SDS011;28306;55.744;37.578;2022-08-21T00:20:42;16.48;;;11.25;;
42690;SDS011;28306;55.744;37.578;2022-08-21T00:23:09;16.95;;;10.63;;
42690;SDS011;28306;55.744;37.578;2022-08-21T00:25:35;19.85;;;11.50;;
42690;SDS011;28306;55.744;37.578;2022-08-21T00:28:01;19.92;;;11.70;;
42690;SDS011;28306;55.744;37.578;2022-08-21T00:30:28;18.45;;;11.25;;
42690;SDS011;28306;55.744;37.578;2022-08-21T00:32:54;16.63;;;11.27;;
42690;SDS011;28306;55.744;37.578;2022-08-21T00:35:25;17.08;;;11.52;;
42690;SDS011;28306;55.744;37.578;2022-08-21T00:37:55;18.95;;;12.20;;
42690;SDS011;28306;55.744;37.578;2022-08-21T00:40:25;17.65;;;11.50;;
42690;SDS011;28306;55.744;37.578;2022-08-21T00:42:55;17.70;;;11.05;;
42690;SDS011;28306;55.744;37.578;2022-08-21T00:45:22;19.33;;;12.00;;
42690;SDS011;28306;55.744;37.578;2022-08-21T00:47:49;15.95;;;12.23;;
42690;SDS011;28306;55.744;37.578;2022-08-21T00:50:16;16.35;;;12.50;;
42690;SDS011;28306;55.744;37.578;2022-08-21T00:52:42;18.33;;;11.15;;
42690;SDS011;28306;55.744;37.578;2022-08-21T00:55:09;17.58;;;12.38;;
42690;SDS011;28306;55.744;37.578;2022-08-21T00:57:43;18.70;;;12.07;;
42690;SDS011;28306;55.744;37.578;2022-08-21T01:00:15;17.08;;;12.40;;
42690;SDS011;28306;55.744;37.578;2022-08-21T01:02:44;17.13;;;12.48;;
42690;SDS011;28306;55.744;37.578;2022-08-21T01:05:10;22.30;;;13.10;;
42690;SDS011;28306;55.744;37.578;2022-08-21T01:07:36;15.82;;;10.93;;
42690;SDS011;28306;55.744;37.578;2022-08-21T01:10:03;22.50;;;12.52;;
42690;SDS011;28306;55.744;37.578;2022-08-21T01:12:29;19.10;;;13.38;;
42690;SDS011;28306;55.744;37.578;2022-08-21T01:14:55;19.48;;;14.75;;
42690;SDS011;28306;55.744;37.578;2022-08-21T01:17:21;19.30;;;12.82;;
42690;SDS011;28306;55.744;37.578;2022-08-21T01:19:47;22.33;;;13.75;;
42690;SDS011;28306;55.744;37.578;2022-08-21T01:22:13;17.05;;;12.55;;
42690;SDS011;28306;55.744;37.578;2022-08-21T01:24:38;21.08;;;13.75;;
42690;SDS011;28306;55.744;37.578;2022-08-21T01:27:04;19.25;;;14.07;;
42690;SDS011;28306;55.744;37.578;2022-08-21T01:29:51;19.73;;;13.18;;
42690;SDS011;28306;55.744;37.578;2022-08-21T01:32:32;19.90;;;13.60;;
42690;SDS011;28306;55.744;37.578;2022-08-21T01:34:58;20.20;;;13.23;;
42690;SDS011;28306;55.744;37.578;2022-08-21T01:37:24;23.15;;;13.68;;
42690;SDS011;28306;55.744;37.578;2022-08-21T01:39:50;21.75;;;13.88;;
42690;SDS011;28306;55.744;37.578;2022-08-21T01:42:15;20.85;;;12.75;;
42690;SDS011;28306;55.744;37.578;2022-08-21T01:44:41;21.75;;;14.02;;
42690;SDS011;28306;55.744;37.578;2022-08-21T01:47:09;16.83;;;12.75;;
42690;SDS011;28306;55.744;37.578;2022-08-21T01:49:37;23.15;;;14.27;;
42690;SDS011;28306;55.744;37.578;2022-08-21T01:52:04;17.65;;;13.10;;
42690;SDS011;28306;55.744;37.578;2022-08-21T01:54:30;21.17;;;13.82;;
42690;SDS011;28306;55.744;37.578;2022-08-21T01:56:56;19.88;;;13.68;;
42690;SDS011;28306;55.744;37.578;2022-08-21T01:59:24;17.98;;;13.25;;
42690;SDS011;28306;55.744;37.578;2022-08-21T02:01:51;20.05;;;14.88;;
42690;SDS011;28306;55.744;37.578;2022-08-21T02:04:19;21.60;;;13.93;;
42690;SDS011;28306;55.744;37.578;2022-08-21T02:06:45;24.20;;;14.00;;
42690;SDS011;28306;55.744;37.578;2022-08-21T02:09:12;20.10;;;13.75;;
42690;SDS011;28306;55.744;37.578;2022-08-21T02:11:39;19.50;;;13.30;;
42690;SDS011;28306;55.744;37.578;2022-08-21T02:14:12;20.30;;;13.15;;
42690;SDS011;28306;55.744;37.578;2022-08-21T02:16:39;18.88;;;12.73;;
42690;SDS011;28306;55.744;37.578;2022-08-21T02:19:07;23.35;;;14.52;;
42690;SDS011;28306;55.744;37.578;2022-08-21T02:21:33;22.50;;;14.45;;
42690;SDS011;28306;55.744;37.578;2022-08-21T02:23:59;17.83;;;13.40;;
42690;SDS011;28306;55.744;37.578;2022-08-21T02:26:25;19.10;;;12.85;;
42690;SDS011;28306;55.744;37.578;2022-08-21T02:28:50;21.45;;;14.02;;
42690;SDS011;28306;55.744;37.578;2022-08-21T02:31:16;16.75;;;12.95;;
42690;SDS011;28306;55.744;37.578;2022-08-21T02:33:42;20.20;;;13.02;;
42690;SDS011;28306;55.744;37.578;2022-08-21T02:36:08;19.63;;;12.52;;
42690;SDS011;28306;55.744;37.578;2022-08-21T02:38:35;18.70;;;14.00;;
42690;SDS011;28306;55.744;37.578;2022-08-21T02:41:06;18.40;;;13.23;;
42690;SDS011;28306;55.744;37.578;2022-08-21T02:43:33;19.90;;;12.93;;
42690;SDS011;28306;55.744;37.578;2022-08-21T02:46:01;18.90;;;12.57;;
42690;SDS011;28306;55.744;37.578;2022-08-21T02:48:30;21.35;;;14.38;;
42690;SDS011;28306;55.744;37.578;2022-08-21T02:50:58;20.60;;;12.65;;
42690;SDS011;28306;55.744;37.578;2022-08-21T02:53:28;18.02;;;12.23;;
42690;SDS011;28306;55.744;37.578;2022-08-21T02:55:55;19.75;;;12.70;;
42690;SDS011;28306;55.744;37.578;2022-08-21T02:58:27;19.67;;;13.27;;
42690;SDS011;28306;55.744;37.578;2022-08-21T03:00:56;18.38;;;13.32;;
42690;SDS011;28306;55.744;37.578;2022-08-21T03:03:23;22.38;;;13.35;;
42690;SDS011;28306;55.744;37.578;2022-08-21T03:05:50;19.38;;;13.18;;
42690;SDS011;28306;55.744;37.578;2022-08-21T03:08:16;20.20;;;13.13;;
42690;SDS011;28306;55.744;37.578;2022-08-21T03:10:47;18.67;;;12.18;;
42690;SDS011;28306;55.744;37.578;2022-08-21T03:13:15;20.73;;;13.02;;
42690;SDS011;28306;55.744;37.578;2022-08-21T03:15:41;20.15;;;12.85;;
42690;SDS011;28306;55.744;37.578;2022-08-21T03:18:08;17.55;;;12.70;;
42690;SDS011;28306;55.744;37.578;2022-08-21T03:20:35;20.58;;;13.48;;
42690;SDS011;28306;55.744;37.578;2022-08-21T03:23:02;20.50;;;13.55;;
42690;SDS011;28306;55.744;37.578;2022-08-21T03:25:29;21.85;;;13.15;;
42690;SDS011;28306;55.744;37.578;2022-08-21T03:27:59;20.38;;;12.68;;
42690;SDS011;28306;55.744;37.578;2022-08-21T03:30:26;19.77;;;13.20;;
42690;SDS011;28306;55.744;37.578;2022-08-21T03:32:51;16.50;;;12.32;;
42690;SDS011;28306;55.744;37.578;2022-08-21T03:35:18;19.73;;;13.27;;
42690;SDS011;28306;55.744;37.578;2022-08-21T03:37:45;20.52;;;13.45;;
42690;SDS011;28306;55.744;37.578;2022-08-21T03:40:12;21.88;;;13.07;;
42690;SDS011;28306;55.744;37.578;2022-08-21T03:42:39;18.25;;;12.52;;
42690;SDS011;28306;55.744;37.578;2022-08-21T03:45:05;20.35;;;12.95;;
42690;SDS011;28306;55.744;37.578;2022-08-21T03:47:32;18.13;;;11.95;;
42690;SDS011;28306;55.744;37.578;2022-08-21T03:49:57;18.27;;;11.85;;
42690;SDS011;28306;55.744;37.578;2022-08-21T03:52:24;19.75;;;14.10;;
42690;SDS011;28306;55.744;37.578;2022-08-21T03:54:50;22.02;;;13.48;;
42690;SDS011;28306;55.744;37.578;2022-08-21T03:57:16;19.73;;;12.80;;
42690;SDS011;28306;55.744;37.578;2022-08-21T03:59:42;22.67;;;13.82;;
42690;SDS011;28306;55.744;37.578;2022-08-21T04:02:08;19.70;;;13.00;;
42690;SDS011;28306;55.744;37.578;2022-08-21T04:04:34;20.10;;;12.73;;
42690;SDS011;28306;55.744;37.578;2022-08-21T04:07:01;16.95;;;12.48;;
42690;SDS011;28306;55.744;37.578;2022-08-21T04:09:26;17.85;;;12.55;;
42690;SDS011;28306;55.744;37.578;2022-08-21T04:11:52;17.85;;;12.48;;
42690;SDS011;28306;55.744;37.578;2022-08-21T04:14:18;19.65;;;13.65;;
42690;SDS011;28306;55.744;37.578;2022-08-21T04:16:44;18.83;;;13.38;;
42690;SDS011;28306;55.744;37.578;2022-08-21T04:19:10;22.05;;;12.65;;
42690;SDS011;28306;55.744;37.578;2022-08-21T04:21:38;19.65;;;12.73;;
42690;SDS011;28306;55.744;37.578;2022-08-21T04:24:05;15.15;;;11.45;;
42690;SDS011;28306;55.744;37.578;2022-08-21T04:26:33;23.05;;;14.02;;
42690;SDS011;28306;55.744;37.578;2022-08-21T04:29:00;20.08;;;14.23;;
42690;SDS011;28306;55.744;37.578;2022-08-21T04:31:26;20.15;;;13.68;;
42690;SDS011;28306;55.744;37.578;2022-08-21T04:33:53;21.17;;;13.30;;
42690;SDS011;28306;55.744;37.578;2022-08-21T04:36:20;24.88;;;14.98;;
42690;SDS011;28306;55.744;37.578;2022-08-21T04:38:45;22.05;;;14.48;;
42690;SDS011;28306;55.744;37.578;2022-08-21T04:41:11;18.15;;;13.40;;
42690;SDS011;28306;55.744;37.578;2022-08-21T04:43:37;20.65;;;14.23;;
42690;SDS011;28306;55.744;37.578;2022-08-21T04:46:04;20.65;;;14.10;;
42690;SDS011;28306;55.744;37.578;2022-08-21T04:48:30;20.45;;;14.05;;
42690;SDS011;28306;55.744;37.578;2022-08-21T04:53:34;18.23;;;14.10;;
42690;SDS011;28306;55.744;37.578;2022-08-21T04:56:22;26.42;;;15.15;;
42690;SDS011;28306;55.744;37.578;2022-08-21T04:58:52;22.85;;;14.95;;
42690;SDS011;28306;55.744;37.578;2022-08-21T05:01:22;19.80;;;15.05;;
42690;SDS011;28306;55.744;37.578;2022-08-21T05:03:52;21.95;;;14.88;;
42690;SDS011;28306;55.744;37.578;2022-08-21T05:06:21;22.20;;;14.77;;
42690;SDS011;28306;55.744;37.578;2022-08-21T05:08:49;22.45;;;15.45;;
42690;SDS011;28306;55.744;37.578;2022-08-21T05:11:18;21.25;;;14.95;;
42690;SDS011;28306;55.744;37.578;2022-08-21T05:13:45;24.00;;;15.50;;
42690;SDS011;28306;55.744;37.578;2022-08-21T05:16:10;22.35;;;16.33;;
42690;SDS011;28306;55.744;37.578;2022-08-21T05:18:37;23.40;;;15.57;;
42690;SDS011;28306;55.744;37.578;2022-08-21T05:21:02;21.85;;;15.32;;
42690;SDS011;28306;55.744;37.578;2022-08-21T05:23:29;21.08;;;15.82;;
42690;SDS011;28306;55.744;37.578;2022-08-21T05:25:54;25.48;;;16.35;;
42690;SDS011;28306;55.744;37.578;2022-08-21T05:28:21;24.20;;;15.98;;
42690;SDS011;28306;55.744;37.578;2022-08-21T05:30:47;24.30;;;17.30;;
42690;SDS011;28306;55.744;37.578;2022-08-21T05:33:13;23.52;;;16.65;;
42690;SDS011;28306;55.744;37.578;2022-08-21T05:35:38;25.85;;;16.67;;
42690;SDS011;28306;55.744;37.578;2022-08-21T05:38:04;23.17;;;14.82;;
42690;SDS011;28306;55.744;37.578;2022-08-21T05:40:30;23.33;;;16.38;;
42690;SDS011;28306;55.744;37.578;2022-08-21T05:42:57;27.90;;;16.40;;
42690;SDS011;28306;55.744;37.578;2022-08-21T05:45:25;22.95;;;16.85;;
42690;SDS011;28306;55.744;37.578;2022-08-21T05:47:53;23.77;;;16.92;;
42690;SDS011;28306;55.744;37.578;2022-08-21T05:50:18;24.02;;;16.52;;
42690;SDS011;28306;55.744;37.578;2022-08-21T05:52:44;24.58;;;16.63;;
42690;SDS011;28306;55.744;37.578;2022-08-21T05:55:10;25.95;;;17.55;;
42690;SDS011;28306;55.744;37.578;2022-08-21T05:57:35;23.75;;;16.25;;
42690;SDS011;28306;55.744;37.578;2022-08-21T06:00:01;26.63;;;17.33;;
42690;SDS011;28306;55.744;37.578;2022-08-21T06:02:38;23.38;;;17.50;;
42690;SDS011;28306;55.744;37.578;2022-08-21T06:05:05;25.52;;;16.88;;
42690;SDS011;28306;55.744;37.578;2022-08-21T06:07:31;23.92;;;16.65;;
42690;SDS011;28306;55.744;37.578;2022-08-21T06:09:56;26.33;;;17.75;;
42690;SDS011;28306;55.744;37.578;2022-08-21T06:12:22;23.17;;;17.27;;
42690;SDS011;28306;55.744;37.578;2022-08-21T06:14:48;25.77;;;17.73;;
42690;SDS011;28306;55.744;37.578;2022-08-21T06:17:15;26.70;;;17.92;;
42690;SDS011;28306;55.744;37.578;2022-08-21T06:19:41;25.58;;;17.05;;
42690;SDS011;28306;55.744;37.578;2022-08-21T06:22:07;25.98;;;17.52;;
42690;SDS011;28306;55.744;37.578;2022-08-21T06:24:33;25.50;;;17.80;;
42690;SDS011;28306;55.744;37.578;2022-08-21T06:27:03;26.42;;;18.42;;
42690;SDS011;28306;55.744;37.578;2022-08-21T06:29:29;27.63;;;18.33;;
42690;SDS011;28306;55.744;37.578;2022-08-21T06:31:55;24.02;;;17.45;;
42690;SDS011;28306;55.744;37.578;2022-08-21T06:34:21;29.60;;;18.95;;
42690;SDS011;28306;55.744;37.578;2022-08-21T06:36:46;26.58;;;18.15;;
42690;SDS011;28306;55.744;37.578;2022-08-21T06:39:12;27.33;;;19.05;;
42690;SDS011;28306;55.744;37.578;2022-08-21T06:41:38;25.15;;;17.67;;
42690;SDS011;28306;55.744;37.578;2022-08-21T06:44:04;25.40;;;18.48;;
42690;SDS011;28306;55.744;37.578;2022-08-21T06:46:30;25.95;;;18.58;;
42690;SDS011;28306;55.744;37.578;2022-08-21T06:48:56;26.85;;;18.80;;
42690;SDS011;28306;55.744;37.578;2022-08-21T06:51:23;27.58;;;18.95;;
42690;SDS011;28306;55.744;37.578;2022-08-21T06:53:50;26.48;;;19.35;;
42690;SDS011;28306;55.744;37.578;2022-08-21T06:56:16;27.63;;;20.23;;
42690;SDS011;28306;55.744;37.578;2022-08-21T06:58:41;26.48;;;18.42;;
42690;SDS011;28306;55.744;37.578;2022-08-21T07:01:07;26.88;;;19.25;;
42690;SDS011;28306;55.744;37.578;2022-08-21T07:03:34;29.33;;;19.65;;
42690;SDS011;28306;55.744;37.578;2022-08-21T07:06:02;28.48;;;19.55;;
42690;SDS011;28306;55.744;37.578;2022-08-21T07:08:32;30.65;;;20.38;;
42690;SDS011;28306;55.744;37.578;2022-08-21T07:10:59;25.42;;;19.67;;
42690;SDS011;28306;55.744;37.578;2022-08-21T07:13:27;28.27;;;19.85;;
42690;SDS011;28306;55.744;37.578;2022-08-21T07:15:52;25.33;;;19.02;;
42690;SDS011;28306;55.744;37.578;2022-08-21T07:18:18;28.48;;;19.17;;
42690;SDS011;28306;55.744;37.578;2022-08-21T07:20:44;28.20;;;19.17;;
42690;SDS011;28306;55.744;37.578;2022-08-21T07:23:25;26.95;;;20.02;;
42690;SDS011;28306;55.744;37.578;2022-08-21T07:25:54;29.63;;;20.38;;
42690;SDS011;28306;55.744;37.578;2022-08-21T07:28:20;26.58;;;19.63;;
42690;SDS011;28306;55.744;37.578;2022-08-21T07:30:46;28.73;;;19.73;;
42690;SDS011;28306;55.744;37.578;2022-08-21T07:33:16;28.10;;;19.33;;
42690;SDS011;28306;55.744;37.578;2022-08-21T07:35:42;27.60;;;19.52;;
42690;SDS011;28306;55.744;37.578;2022-08-21T07:38:08;26.45;;;18.00;;
42690;SDS011;28306;55.744;37.578;2022-08-21T07:40:33;26.52;;;18.55;;
42690;SDS011;28306;55.744;37.578;2022-08-21T07:42:59;28.40;;;19.48;;
42690;SDS011;28306;55.744;37.578;2022-08-21T07:45:25;30.77;;;21.38;;
42690;SDS011;28306;55.744;37.578;2022-08-21T07:47:51;28.83;;;21.80;;
42690;SDS011;28306;55.744;37.578;2022-08-21T07:50:17;26.23;;;19.83;;
42690;SDS011;28306;55.744;37.578;2022-08-21T07:52:43;29.38;;;19.70;;
42690;SDS011;28306;55.744;37.578;2022-08-21T07:55:10;32.20;;;20.08;;
42690;SDS011;28306;55.744;37.578;2022-08-21T07:57:37;29.15;;;20.73;;
42690;SDS011;28306;55.744;37.578;2022-08-21T08:00:04;26.33;;;19.23;;
42690;SDS011;28306;55.744;37.578;2022-08-21T08:02:38;28.88;;;19.75;;
42690;SDS011;28306;55.744;37.578;2022-08-21T08:05:04;27.33;;;19.10;;
42690;SDS011;28306;55.744;37.578;2022-08-21T08:07:34;28.20;;;19.42;;
42690;SDS011;28306;55.744;37.578;2022-08-21T08:10:00;31.63;;;19.73;;
42690;SDS011;28306;55.744;37.578;2022-08-21T08:12:26;26.73;;;19.13;;
42690;SDS011;28306;55.744;37.578;2022-08-21T08:14:56;26.48;;;19.90;;
42690;SDS011;28306;55.744;37.578;2022-08-21T08:17:22;32.20;;;21.13;;
42690;SDS011;28306;55.744;37.578;2022-08-21T08:19:49;28.33;;;19.67;;
42690;SDS011;28306;55.744;37.578;2022-08-21T08:22:15;26.27;;;19.77;;
42690;SDS011;28306;55.744;37.578;2022-08-21T08:24:44;31.13;;;20.48;;
42690;SDS011;28306;55.744;37.578;2022-08-21T08:27:10;29.45;;;20.30;;
42690;SDS011;28306;55.744;37.578;2022-08-21T08:29:36;26.80;;;19.13;;
42690;SDS011;28306;55.744;37.578;2022-08-21T08:32:03;29.77;;;19.75;;
42690;SDS011;28306;55.744;37.578;2022-08-21T08:34:32;25.30;;;18.83;;
42690;SDS011;28306;55.744;37.578;2022-08-21T08:36:59;26.67;;;19.38;;
42690;SDS011;28306;55.744;37.578;2022-08-21T08:39:25;25.23;;;19.67;;
42690;SDS011;28306;55.744;37.578;2022-08-21T08:41:56;26.00;;;18.92;;
42690;SDS011;28306;55.744;37.578;2022-08-21T08:44:31;26.05;;;19.33;;
42690;SDS011;28306;55.744;37.578;2022-08-21T08:46:57;27.15;;;18.20;;
42690;SDS011;28306;55.744;37.578;2022-08-21T08:49:44;26.88;;;19.15;;
42690;SDS011;28306;55.744;37.578;2022-08-21T08:55:09;23.98;;;17.25;;
42690;SDS011;28306;55.744;37.578;2022-08-21T08:57:37;25.83;;;18.35;;
42690;SDS011;28306;55.744;37.578;2022-08-21T09:00:10;24.52;;;18.45;;
42690;SDS011;28306;55.744;37.578;2022-08-21T09:02:44;24.00;;;17.35;;
42690;SDS011;28306;55.744;37.578;2022-08-21T09:05:17;25.60;;;17.35;;
42690;SDS011;28306;55.744;37.578;2022-08-21T09:10:55;22.13;;;16.27;;
42690;SDS011;28306;55.744;37.578;2022-08-21T09:15:55;21.30;;;16.27;;
42690;SDS011;28306;55.744;37.578;2022-08-21T09:26:18;27.50;;;17.30;;
42690;SDS011;28306;55.744;37.578;2022-08-21T09:28:48;23.13;;;16.02;;
42690;SDS011;28306;55.744;37.578;2022-08-21T09:31:34;20.30;;;14.90;;
42690;SDS011;28306;55.744;37.578;2022-08-21T09:34:05;20.25;;;14.52;;
42690;SDS011;28306;55.744;37.578;2022-08-21T09:36:38;21.25;;;15.50;;
42690;SDS011;28306;55.744;37.578;2022-08-21T09:39:04;19.70;;;14.18;;
42690;SDS011;28306;55.744;37.578;2022-08-21T09:41:31;19.25;;;14.30;;
42690;SDS011;28306;55.744;37.578;2022-08-21T09:44:01;18.30;;;14.10;;
42690;SDS011;28306;55.744;37.578;2022-08-21T09:46:27;21.73;;;15.20;;
42690;SDS011;28306;55.744;37.578;2022-08-21T09:48:54;20.50;;;14.38;;
42690;SDS011;28306;55.744;37.578;2022-08-21T09:51:27;21.73;;;15.00;;
42690;SDS011;28306;55.744;37.578;2022-08-21T09:53:55;21.92;;;14.85;;
42690;SDS011;28306;55.744;37.578;2022-08-21T09:59:13;17.67;;;13.27;;
42690;SDS011;28306;55.744;37.578;2022-08-21T10:01:46;21.50;;;13.52;;
42690;SDS011;28306;55.744;37.578;2022-08-21T10:04:14;18.23;;;12.82;;
42690;SDS011;28306;55.744;37.578;2022-08-21T10:06:44;16.50;;;12.98;;
42690;SDS011;28306;55.744;37.578;2022-08-21T10:09:11;21.52;;;12.82;;
42690;SDS011;28306;55.744;37.578;2022-08-21T10:11:39;18.95;;;13.27;;
42690;SDS011;28306;55.744;37.578;2022-08-21T10:16:38;17.13;;;12.52;;
42690;SDS011;28306;55.744;37.578;2022-08-21T10:25:37;16.50;;;11.30;;
42690;SDS011;28306;55.744;37.578;2022-08-21T10:36:02;16.25;;;12.15;;
42690;SDS011;28306;55.744;37.578;2022-08-21T10:46:54;14.20;;;10.70;;
42690;SDS011;28306;55.744;37.578;2022-08-21T10:52:34;15.20;;;10.40;;
42690;SDS011;28306;55.744;37.578;2022-08-21T10:55:22;12.77;;;9.25;;
42690;SDS011;28306;55.744;37.578;2022-08-21T10:58:09;16.38;;;10.05;;
42690;SDS011;28306;55.744;37.578;2022-08-21T11:03:15;15.32;;;9.45;;
42690;SDS011;28306;55.744;37.578;2022-08-21T11:05:53;13.57;;;9.25;;
42690;SDS011;28306;55.744;37.578;2022-08-21T11:08:24;13.60;;;9.55;;
42690;SDS011;28306;55.744;37.578;2022-08-21T11:10:59;16.55;;;9.73;;
42690;SDS011;28306;55.744;37.578;2022-08-21T11:13:38;14.55;;;10.07;;
42690;SDS011;28306;55.744;37.578;2022-08-21T11:22:38;13.02;;;9.35;;
42690;SDS011;28306;55.744;37.578;2022-08-21T11:28:14;14.15;;;8.57;;
42690;SDS011;28306;55.744;37.578;2022-08-21T11:33:58;10.35;;;7.95;;
42690;SDS011;28306;55.744;37.578;2022-08-21T11:36:36;11.15;;;7.88;;
42690;SDS011;28306;55.744;37.578;2022-08-21T11:44:44;12.13;;;8.00;;
42690;SDS011;28306;55.744;37.578;2022-08-21T11:50:21;11.75;;;7.47;;
42690;SDS011;28306;55.744;37.578;2022-08-21T11:55:50;10.70;;;7.15;;
42690;SDS011;28306;55.744;37.578;2022-08-21T11:58:40;11.20;;;7.38;;
42690;SDS011;28306;55.744;37.578;2022-08-21T12:01:11;10.38;;;7.53;;
42690;SDS011;28306;55.744;37.578;2022-08-21T12:03:42;11.27;;;7.15;;
42690;SDS011;28306;55.744;37.578;2022-08-21T12:06:27;10.48;;;7.63;;
42690;SDS011;28306;55.744;37.578;2022-08-21T12:09:05;12.93;;;7.65;;
42690;SDS011;28306;55.744;37.578;2022-08-21T12:11:45;12.30;;;7.32;;
42690;SDS011;28306;55.744;37.578;2022-08-21T12:14:15;12.75;;;7.43;;
42690;SDS011;28306;55.744;37.578;2022-08-21T12:16:46;13.68;;;8.18;;
42690;SDS011;28306;55.744;37.578;2022-08-21T12:21:53;11.48;;;7.97;;
42690;SDS011;28306;55.744;37.578;2022-08-21T12:24:42;10.23;;;7.07;;
42690;SDS011;28306;55.744;37.578;2022-08-21T12:29:45;11.93;;;7.32;;
42690;SDS011;28306;55.744;37.578;2022-08-21T12:34:44;13.63;;;7.88;;
42690;SDS011;28306;55.744;37.578;2022-08-21T12:37:18;11.82;;;7.18;;
42690;SDS011;28306;55.744;37.578;2022-08-21T12:39:46;11.43;;;7.60;;
42690;SDS011;28306;55.744;37.578;2022-08-21T12:42:18;9.30;;;6.88;;
42690;SDS011;28306;55.744;37.578;2022-08-21T12:44:53;8.98;;;6.15;;
42690;SDS011;28306;55.744;37.578;2022-08-21T12:47:36;10.43;;;7.35;;
42690;SDS011;28306;55.744;37.578;2022-08-21T12:50:13;10.73;;;7.20;;
42690;SDS011;28306;55.744;37.578;2022-08-21T12:52:48;12.20;;;7.22;;
42690;SDS011;28306;55.744;37.578;2022-08-21T12:55:31;16.05;;;6.82;;
42690;SDS011;28306;55.744;37.578;2022-08-21T12:57:58;11.40;;;6.88;;
42690;SDS011;28306;55.744;37.578;2022-08-21T13:00:25;9.90;;;6.78;;
42690;SDS011;28306;55.744;37.578;2022-08-21T13:02:54;11.93;;;6.45;;
42690;SDS011;28306;55.744;37.578;2022-08-21T13:05:27;12.27;;;6.72;;
42690;SDS011;28306;55.744;37.578;2022-08-21T13:07:58;9.73;;;6.25;;
42690;SDS011;28306;55.744;37.578;2022-08-21T13:10:29;10.30;;;6.32;;
42690;SDS011;28306;55.744;37.578;2022-08-21T13:12:58;9.82;;;6.80;;
42690;SDS011;28306;55.744;37.578;2022-08-21T13:15:31;8.95;;;6.32;;
42690;SDS011;28306;55.744;37.578;2022-08-21T13:17:59;9.10;;;6.78;;
42690;SDS011;28306;55.744;37.578;2022-08-21T13:23:00;15.43;;;6.38;;
42690;SDS011;28306;55.744;37.578;2022-08-21T13:25:34;10.55;;;6.13;;
42690;SDS011;28306;55.744;37.578;2022-08-21T13:28:06;8.27;;;6.03;;
42690;SDS011;28306;55.744;37.578;2022-08-21T13:30:38;7.28;;;5.85;;
42690;SDS011;28306;55.744;37.578;2022-08-21T13:33:05;8.77;;;5.75;;
42690;SDS011;28306;55.744;37.578;2022-08-21T13:35:44;10.50;;;6.00;;
42690;SDS011;28306;55.744;37.578;2022-08-21T13:38:13;10.80;;;5.88;;
42690;SDS011;28306;55.744;37.578;2022-08-21T13:43:20;8.55;;;5.65;;
42690;SDS011;28306;55.744;37.578;2022-08-21T13:45:53;7.72;;;5.50;;
42690;SDS011;28306;55.744;37.578;2022-08-21T13:48:20;13.10;;;6.18;;
42690;SDS011;28306;55.744;37.578;2022-08-21T13:50:48;9.02;;;5.82;;
42690;SDS011;28306;55.744;37.578;2022-08-21T13:56:20;10.93;;;5.93;;
42690;SDS011;28306;55.744;37.578;2022-08-21T13:58:48;7.63;;;5.65;;
42690;SDS011;28306;55.744;37.578;2022-08-21T14:04:04;8.48;;;5.45;;
42690;SDS011;28306;55.744;37.578;2022-08-21T14:06:41;10.65;;;6.03;;
42690;SDS011;28306;55.744;37.578;2022-08-21T14:09:09;13.40;;;5.72;;
42690;SDS011;28306;55.744;37.578;2022-08-21T14:11:37;6.13;;;4.95;;
42690;SDS011;28306;55.744;37.578;2022-08-21T14:14:06;6.80;;;5.15;;
42690;SDS011;28306;55.744;37.578;2022-08-21T14:16:52;7.97;;;5.40;;
42690;SDS011;28306;55.744;37.578;2022-08-21T14:21:48;7.60;;;5.20;;
42690;SDS011;28306;55.744;37.578;2022-08-21T14:24:25;6.15;;;4.85;;
42690;SDS011;28306;55.744;37.578;2022-08-21T14:26:57;8.45;;;5.28;;
42690;SDS011;28306;55.744;37.578;2022-08-21T14:29:34;8.30;;;4.75;;
42690;SDS011;28306;55.744;37.578;2022-08-21T14:32:11;10.20;;;4.80;;
42690;SDS011;28306;55.744;37.578;2022-08-21T14:34:49;10.82;;;5.72;;
42690;SDS011;28306;55.744;37.578;2022-08-21T14:37:14;9.40;;;5.20;;
42690;SDS011;28306;55.744;37.578;2022-08-21T14:39:40;8.50;;;4.50;;
42690;SDS011;28306;55.744;37.578;2022-08-21T14:42:06;8.20;;;4.20;;
42690;SDS011;28306;55.744;37.578;2022-08-21T14:44:31;7.28;;;4.95;;
42690;SDS011;28306;55.744;37.578;2022-08-21T14:46:58;7.72;;;4.55;;
42690;SDS011;28306;55.744;37.578;2022-08-21T14:49:25;6.60;;;4.28;;
42690;SDS011;28306;55.744;37.578;2022-08-21T14:51:53;7.15;;;4.40;;
42690;SDS011;28306;55.744;37.578;2022-08-21T14:54:27;7.68;;;3.88;;
42690;SDS011;28306;55.744;37.578;2022-08-21T14:56:54;7.82;;;4.65;;
42690;SDS011;28306;55.744;37.578;2022-08-21T14:59:20;7.10;;;3.88;;
42690;SDS011;28306;55.744;37.578;2022-08-21T15:01:46;7.20;;;4.15;;
42690;SDS011;28306;55.744;37.578;2022-08-21T15:04:12;7.35;;;4.03;;
42690;SDS011;28306;55.744;37.578;2022-08-21T15:06:38;5.32;;;3.75;;
42690;SDS011;28306;55.744;37.578;2022-08-21T15:09:04;6.93;;;4.22;;
42690;SDS011;28306;55.744;37.578;2022-08-21T15:11:31;5.90;;;3.47;;
42690;SDS011;28306;55.744;37.578;2022-08-21T15:13:59;6.72;;;4.07;;
42690;SDS011;28306;55.744;37.578;2022-08-21T15:16:27;4.88;;;3.55;;
42690;SDS011;28306;55.744;37.578;2022-08-21T15:18:56;4.75;;;3.40;;
42690;SDS011;28306;55.744;37.578;2022-08-21T15:21:22;6.68;;;3.33;;
42690;SDS011;28306;55.744;37.578;2022-08-21T15:23:47;4.38;;;3.08;;
42690;SDS011;28306;55.744;37.578;2022-08-21T15:26:13;5.03;;;3.22;;
42690;SDS011;28306;55.744;37.578;2022-08-21T15:28:39;4.60;;;2.88;;
42690;SDS011;28306;55.744;37.578;2022-08-21T15:31:05;5.43;;;2.83;;
42690;SDS011;28306;55.744;37.578;2022-08-21T15:33:31;4.68;;;3.00;;
42690;SDS011;28306;55.744;37.578;2022-08-21T15:35:57;5.13;;;3.28;;
